Terminal Aerodrome Forecast
Issued by NWS Portland, ME

Home | Current Version | Previous Version | Text Only | Print | Product List | Glossary On
Versions: 1 2 3 4 5 6 7 8 9 10 11 12 13 14 15 16 17 18 19 20 21 22 23 24 25 26
487
FTUS41 KGYX 121122
TAFCON
TAF
KCON 121122Z 1212/1312 30004KT P6SM SCT035 SCT120
     FM121500 26006KT P6SM SCT050 SCT100
     FM122000 20005KT P6SM BKN050 BKN080
     FM130600 VRB03KT P6SM OVC040=

USA.gov is the U.S. government's official web portal to all federal, state and local government web resources and services.